Time;durP1;ratioP1;P1;durP2;ratioP2;P2;SDS_P1;SDS_P2;PMS_P1;PMS_P2;Temp;Humidity;BMP_temperature;BMP_pressure;BME280_temperature;BME280_humidity;BME280_pressure;Samples;Min_cycle;Max_cycle;Signal;HPM_P1;HPM_P2
2021/08/04 00:00:45;;;;;;;2.90;1.40;;;15.60;99.90;;;;;;5018278;28;20187;-74
2021/08/04 00:03:11;;;;;;;1.20;1.10;;;15.50;99.90;;;;;;5010680;28;20196;-73
2021/08/04 00:05:36;;;;;;;2.80;2.60;;;15.50;99.90;;;;;;5015887;28;20231;-74
2021/08/04 00:08:02;;;;;;;1.77;1.67;;;15.50;99.90;;;;;;5028843;28;20534;-74
2021/08/04 00:10:28;;;;;;;1.50;1.40;;;15.50;99.90;;;;;;5029428;28;20214;-75
2021/08/04 00:12:53;;;;;;;2.10;1.83;;;15.50;99.90;;;;;;5032059;28;20457;-74
2021/08/04 00:15:19;;;;;;;2.70;1.40;;;15.50;99.90;;;;;;5023778;28;20210;-75
2021/08/04 00:17:45;;;;;;;1.80;1.70;;;15.50;99.90;;;;;;5013180;28;20191;-75
2021/08/04 00:20:12;;;;;;;1.10;1.00;;;15.50;99.90;;;;;;5012197;28;20183;-75
2021/08/04 00:22:37;;;;;;;1.70;1.60;;;15.50;99.90;;;;;;5018778;28;20924;-74
2021/08/04 00:25:04;;;;;;;2.03;1.30;;;15.50;99.90;;;;;;5020807;28;20451;-74
2021/08/04 00:27:29;;;;;;;1.30;1.20;;;15.50;99.90;;;;;;5012648;28;20187;-73
2021/08/04 00:29:56;;;;;;;1.20;0.90;;;15.50;99.90;;;;;;5016571;28;20427;-73
2021/08/04 00:32:22;;;;;;;1.97;1.87;;;15.50;99.90;;;;;;5015924;28;20233;-76
2021/08/04 00:34:48;;;;;;;1.27;1.17;;;15.50;99.90;;;;;;5017833;28;20816;-73
2021/08/04 00:37:14;;;;;;;1.10;1.00;;;15.50;99.90;;;;;;5026651;28;20436;-73
2021/08/04 00:39:39;;;;;;;1.57;1.47;;;15.50;99.90;;;;;;5036452;28;20195;-76
2021/08/04 00:42:06;;;;;;;1.00;0.90;;;15.40;99.90;;;;;;5026586;28;20439;-74
2021/08/04 00:44:31;;;;;;;1.67;0.80;;;15.50;99.90;;;;;;5016529;28;20553;-74
2021/08/04 00:46:57;;;;;;;1.20;1.10;;;15.40;99.90;;;;;;5018229;28;20434;-74
2021/08/04 00:49:22;;;;;;;3.37;1.10;;;15.40;99.90;;;;;;5013801;28;20180;-74
2021/08/04 00:51:48;;;;;;;1.57;1.20;;;15.40;99.90;;;;;;5020876;28;20187;-74
2021/08/04 00:54:14;;;;;;;0.80;0.80;;;15.30;99.90;;;;;;5033136;28;20214;-74
2021/08/04 00:56:39;;;;;;;0.80;0.80;;;15.30;99.90;;;;;;5036575;28;20190;-74
2021/08/04 00:59:07;;;;;;;3.10;0.70;;;15.20;99.90;;;;;;5041301;28;20180;-74
2021/08/04 01:02:02;;;;;;;1.17;0.70;;;15.20;99.90;;;;;;5023954;28;20321;-74
2021/08/04 01:04:38;;;;;;;1.27;1.17;;;15.10;99.90;;;;;;5010477;28;20449;-74
2021/08/04 01:07:20;;;;;;;2.03;1.93;;;15.10;99.90;;;;;;5011678;28;20430;-74
2021/08/04 01:09:54;;;;;;;1.20;1.10;;;15.20;99.90;;;;;;5016167;28;20430;-74
2021/08/04 01:12:30;;;;;;;1.30;1.20;;;15.10;99.90;;;;;;5011830;28;20414;-74
2021/08/04 01:15:01;;;;;;;1.70;1.60;;;15.00;99.90;;;;;;5028415;28;20463;-75
2021/08/04 01:17:27;;;;;;;1.47;1.37;;;14.90;99.90;;;;;;5013688;28;20430;-74
2021/08/04 01:20:06;;;;;;;2.07;1.87;;;15.00;99.90;;;;;;5026321;28;20438;-74
2021/08/04 01:22:49;;;;;;;2.13;0.90;;;15.00;99.90;;;;;;5027605;28;20281;-74
2021/08/04 01:25:17;;;;;;;2.23;0.80;;;15.00;99.90;;;;;;5034480;28;20450;-75
2021/08/04 01:28:10;;;;;;;4.70;1.37;;;15.00;99.90;;;;;;5049095;28;20792;-74
2021/08/04 01:30:37;;;;;;;4.27;2.30;;;14.90;99.90;;;;;;5001723;28;20427;-74
2021/08/04 01:33:03;;;;;;;6.07;2.20;;;15.00;99.90;;;;;;5014644;28;20430;-74
2021/08/04 01:35:30;;;;;;;1.93;1.20;;;14.90;99.90;;;;;;5035170;28;20458;-74
2021/08/04 01:37:56;;;;;;;2.60;2.50;;;14.90;99.90;;;;;;5015131;28;20449;-74
2021/08/04 01:40:23;;;;;;;1.00;0.90;;;14.90;99.90;;;;;;5016555;28;20468;-73
2021/08/04 01:42:49;;;;;;;2.70;2.50;;;14.80;99.90;;;;;;5036536;28;20462;-76
2021/08/04 01:45:15;;;;;;;0.90;0.80;;;14.80;99.90;;;;;;5029400;28;20455;-71
2021/08/04 01:47:43;;;;;;;1.40;1.30;;;14.70;99.90;;;;;;5016934;28;20429;-76
2021/08/04 01:50:10;;;;;;;1.10;1.00;;;14.80;99.90;;;;;;5025818;28;20965;-75
2021/08/04 01:52:37;;;;;;;1.70;1.60;;;14.80;99.90;;;;;;5020787;28;20966;-75
2021/08/04 01:55:04;;;;;;;0.70;0.50;;;14.80;99.90;;;;;;5022061;28;20468;-74
2021/08/04 01:57:29;;;;;;;1.80;1.70;;;14.70;99.90;;;;;;5015452;28;20443;-74
2021/08/04 01:59:55;;;;;;;0.80;0.70;;;14.70;99.90;;;;;;5039256;28;20529;-74
2021/08/04 02:02:22;;;;;;;2.03;1.93;;;14.70;99.90;;;;;;5031656;28;20207;-74
2021/08/04 02:04:51;;;;;;;3.70;1.77;;;14.70;99.90;;;;;;5017170;28;20196;-74
2021/08/04 02:07:40;;;;;;;1.53;1.43;;;14.70;99.90;;;;;;5022432;28;20434;-74
2021/08/04 02:10:11;;;;;;;1.90;0.87;;;14.60;99.90;;;;;;5030171;28;20438;-74
2021/08/04 02:12:55;;;;;;;1.17;1.07;;;14.50;99.90;;;;;;5020149;28;20435;-74
2021/08/04 02:15:21;;;;;;;1.90;1.43;;;14.50;99.90;;;;;;5023037;28;20538;-75
2021/08/04 02:17:54;;;;;;;4.00;1.30;;;14.50;99.90;;;;;;5007201;28;20439;-75
2021/08/04 02:20:27;;;;;;;0.70;0.60;;;14.50;99.90;;;;;;5025890;28;20438;-74
2021/08/04 02:23:04;;;;;;;2.53;2.33;;;14.50;99.90;;;;;;5014194;28;20466;-75
2021/08/04 02:25:31;;;;;;;2.30;1.43;;;14.50;99.90;;;;;;5032074;28;20782;-74
2021/08/04 02:27:59;;;;;;;0.90;0.70;;;14.40;99.90;;;;;;5015604;28;20580;-74
2021/08/04 02:30:26;;;;;;;2.67;2.53;;;14.50;99.90;;;;;;5026506;28;20433;-74
2021/08/04 02:32:53;;;;;;;0.97;0.97;;;14.40;99.90;;;;;;5013595;28;20449;-75
2021/08/04 02:35:19;;;;;;;0.83;0.80;;;14.40;99.90;;;;;;5017086;28;20521;-74
2021/08/04 02:37:46;;;;;;;2.67;2.43;;;14.40;99.90;;;;;;5024891;28;20474;-76
2021/08/04 02:40:13;;;;;;;4.57;2.60;;;14.40;99.90;;;;;;5002622;28;20184;-74
2021/08/04 02:42:39;;;;;;;1.60;1.50;;;14.40;99.90;;;;;;5030159;28;20454;-74
2021/08/04 02:45:06;;;;;;;1.63;1.50;;;14.30;99.90;;;;;;5027923;28;20458;-74
2021/08/04 02:47:33;;;;;;;1.20;1.10;;;14.30;99.90;;;;;;5018178;28;20442;-74
2021/08/04 02:50:03;;;;;;;1.43;1.33;;;14.30;99.90;;;;;;5035315;28;20441;-77
2021/08/04 02:52:28;;;;;;;1.73;1.23;;;14.30;99.90;;;;;;5050601;28;20426;-76
2021/08/04 02:54:54;;;;;;;2.40;1.17;;;14.30;99.90;;;;;;5015472;28;20521;-75
2021/08/04 02:57:20;;;;;;;1.17;0.80;;;14.30;99.90;;;;;;5031279;28;20176;-76
2021/08/04 02:59:45;;;;;;;2.00;1.73;;;14.20;99.90;;;;;;5026838;28;20214;-77
2021/08/04 03:02:11;;;;;;;1.27;1.17;;;14.20;99.90;;;;;;5019972;28;20246;-74
2021/08/04 03:04:36;;;;;;;4.53;1.20;;;14.10;99.90;;;;;;5025328;28;20227;-73
2021/08/04 03:07:02;;;;;;;0.90;0.90;;;14.10;99.90;;;;;;5023734;28;20226;-74
2021/08/04 03:09:28;;;;;;;3.13;1.67;;;14.10;99.90;;;;;;5016939;28;20200;-73
2021/08/04 03:11:53;;;;;;;1.27;1.17;;;14.10;99.90;;;;;;5016817;28;20435;-76
2021/08/04 03:14:19;;;;;;;2.20;1.67;;;14.10;99.90;;;;;;5036484;28;20215;-74
2021/08/04 03:16:45;;;;;;;2.10;1.10;;;14.10;99.90;;;;;;5028642;28;20683;-74
2021/08/04 03:19:11;;;;;;;2.30;0.97;;;14.00;99.90;;;;;;5017634;28;20184;-74
2021/08/04 03:21:36;;;;;;;1.60;1.40;;;14.00;99.90;;;;;;5009654;28;20184;-74
2021/08/04 03:24:02;;;;;;;1.10;1.00;;;14.00;99.90;;;;;;5023373;28;21191;-74
2021/08/04 03:26:28;;;;;;;10.03;1.63;;;14.00;99.90;;;;;;5014663;28;20175;-74
2021/08/04 03:28:53;;;;;;;5.13;3.13;;;13.90;99.90;;;;;;5028178;28;20179;-74
2021/08/04 03:31:19;;;;;;;2.03;1.67;;;14.00;99.90;;;;;;5014578;28;20186;-75
2021/08/04 03:33:44;;;;;;;8.63;1.30;;;14.00;99.90;;;;;;5014062;28;20278;-77
2021/08/04 03:36:10;;;;;;;4.73;3.27;;;14.10;99.90;;;;;;5015566;28;20271;-76
2021/08/04 03:38:35;;;;;;;1.57;1.47;;;14.10;99.90;;;;;;5031016;28;20187;-74
2021/08/04 03:41:01;;;;;;;0.80;0.70;;;14.10;99.90;;;;;;4998380;28;20184;-75
2021/08/04 03:43:26;;;;;;;1.73;1.10;;;14.10;99.90;;;;;;5019979;28;20211;-74
2021/08/04 03:45:52;;;;;;;3.10;2.77;;;14.00;99.90;;;;;;5020084;28;20208;-72
2021/08/04 03:48:17;;;;;;;0.97;0.80;;;14.00;99.90;;;;;;5010656;28;20172;-74
2021/08/04 03:50:43;;;;;;;1.57;1.47;;;13.90;99.90;;;;;;5012288;28;20642;-74
2021/08/04 03:53:08;;;;;;;1.73;1.20;;;13.90;99.90;;;;;;5015925;28;20179;-74
2021/08/04 03:55:34;;;;;;;1.13;0.97;;;13.80;99.90;;;;;;5021047;28;20191;-74
2021/08/04 03:57:59;;;;;;;2.77;2.67;;;13.90;99.90;;;;;;5019433;28;20188;-74
2021/08/04 04:00:25;;;;;;;1.57;0.87;;;13.90;99.90;;;;;;5002598;28;20172;-74
2021/08/04 04:02:51;;;;;;;3.73;2.47;;;14.00;99.90;;;;;;5028346;28;20199;-76
2021/08/04 04:05:16;;;;;;;2.03;1.80;;;14.00;99.90;;;;;;5007666;28;20250;-73
2021/08/04 04:07:42;;;;;;;1.73;1.63;;;14.00;99.90;;;;;;5012542;28;20187;-74
2021/08/04 04:10:08;;;;;;;0.90;0.80;;;14.00;99.90;;;;;;5012394;28;20186;-75
2021/08/04 04:12:34;;;;;;;1.97;1.37;;;14.00;99.90;;;;;;5020364;28;20214;-74
2021/08/04 04:15:00;;;;;;;1.33;1.20;;;13.90;99.90;;;;;;5032915;28;20478;-74
2021/08/04 04:17:26;;;;;;;6.40;1.13;;;13.90;99.90;;;;;;5020459;28;20513;-74
2021/08/04 04:19:51;;;;;;;1.83;1.17;;;13.90;99.90;;;;;;5012405;28;20179;-74
2021/08/04 04:22:17;;;;;;;3.53;3.23;;;14.00;99.90;;;;;;5014222;28;20909;-74
2021/08/04 04:24:42;;;;;;;1.00;0.60;;;14.00;99.90;;;;;;5021008;28;20196;-74
2021/08/04 04:27:08;;;;;;;1.53;1.43;;;14.10;99.90;;;;;;5014481;28;20226;-74
2021/08/04 04:29:34;;;;;;;1.33;1.23;;;14.00;99.90;;;;;;5031934;28;20170;-74
2021/08/04 04:31:59;;;;;;;2.40;1.03;;;14.00;99.90;;;;;;5012767;28;20203;-73
2021/08/04 04:34:25;;;;;;;1.00;0.80;;;14.10;99.90;;;;;;5026477;28;20220;-76
2021/08/04 04:36:50;;;;;;;2.63;1.00;;;14.10;99.90;;;;;;5036529;28;20183;-76
2021/08/04 04:39:16;;;;;;;1.53;1.20;;;14.20;99.90;;;;;;5032019;28;20211;-73
2021/08/04 04:41:41;;;;;;;1.87;1.77;;;14.20;99.90;;;;;;5030357;28;20217;-73
2021/08/04 04:44:07;;;;;;;4.40;1.73;;;14.20;99.90;;;;;;5023503;28;20273;-73
2021/08/04 04:46:33;;;;;;;3.27;1.23;;;14.20;99.90;;;;;;5022780;28;20204;-74
2021/08/04 04:48:58;;;;;;;2.67;2.47;;;14.30;99.90;;;;;;5045260;28;20179;-75
2021/08/04 04:51:24;;;;;;;2.20;1.77;;;14.30;99.90;;;;;;5034080;28;20175;-74
2021/08/04 04:53:50;;;;;;;3.37;1.90;;;14.40;99.90;;;;;;5028171;28;20183;-73
2021/08/04 04:56:16;;;;;;;2.67;2.00;;;14.40;99.90;;;;;;5034703;28;20618;-74
2021/08/04 04:58:42;;;;;;;9.80;2.07;;;14.40;99.90;;;;;;5022284;28;20458;-74
2021/08/04 05:01:07;;;;;;;1.10;1.00;;;14.50;99.90;;;;;;5027258;28;20545;-74
2021/08/04 05:03:33;;;;;;;1.57;1.40;;;14.50;99.90;;;;;;5040015;28;20205;-76
2021/08/04 05:05:58;;;;;;;1.03;0.93;;;14.60;99.90;;;;;;5033483;28;20245;-73
2021/08/04 05:08:24;;;;;;;1.77;1.67;;;14.60;99.90;;;;;;5021539;28;20191;-74
2021/08/04 05:10:49;;;;;;;1.67;1.57;;;14.60;99.90;;;;;;5032447;28;20176;-74
2021/08/04 05:13:15;;;;;;;1.50;1.40;;;14.70;99.90;;;;;;5024095;28;20184;-75
2021/08/04 05:15:40;;;;;;;1.20;1.00;;;14.70;99.90;;;;;;5049016;28;20211;-76
2021/08/04 05:18:06;;;;;;;4.73;4.43;;;14.70;99.90;;;;;;5052377;28;20183;-76
2021/08/04 05:20:32;;;;;;;1.67;1.57;;;14.80;99.90;;;;;;5036819;28;20658;-74
2021/08/04 05:22:57;;;;;;;1.57;1.47;;;14.80;99.90;;;;;;5016142;28;20644;-74
2021/08/04 05:25:25;;;;;;;4.73;4.53;;;14.80;99.90;;;;;;5022424;28;20231;-75
2021/08/04 05:27:50;;;;;;;0.87;0.73;;;14.90;99.90;;;;;;5037687;28;20242;-76
2021/08/04 05:30:16;;;;;;;0.90;0.90;;;15.00;99.90;;;;;;5050818;28;20429;-75
2021/08/04 05:32:42;;;;;;;2.57;1.93;;;15.00;99.90;;;;;;5016469;28;20662;-74
2021/08/04 05:35:08;;;;;;;3.80;2.90;;;15.00;99.90;;;;;;5014096;28;20246;-75
2021/08/04 05:37:33;;;;;;;3.20;2.90;;;15.10;99.90;;;;;;5023662;28;20978;-74
2021/08/04 05:39:59;;;;;;;2.47;2.13;;;15.20;99.90;;;;;;5021184;28;20427;-74
2021/08/04 05:42:24;;;;;;;2.50;2.30;;;15.30;99.90;;;;;;5020592;28;20199;-75
2021/08/04 05:44:50;;;;;;;1.40;1.20;;;15.40;99.90;;;;;;5017119;28;20192;-74
2021/08/04 05:47:16;;;;;;;2.23;2.13;;;15.50;99.90;;;;;;5022112;28;20188;-75
2021/08/04 05:49:42;;;;;;;2.23;2.13;;;15.60;99.90;;;;;;5014912;28;20172;-75
2021/08/04 05:52:07;;;;;;;1.73;1.63;;;15.70;99.90;;;;;;5031605;28;20704;-75
2021/08/04 05:54:33;;;;;;;3.90;3.40;;;15.80;99.90;;;;;;5024921;28;20537;-74
2021/08/04 05:56:59;;;;;;;2.00;1.90;;;16.00;99.90;;;;;;5017327;28;20171;-74
2021/08/04 05:59:24;;;;;;;8.50;4.13;;;16.20;99.90;;;;;;5024014;28;20200;-74
2021/08/04 06:01:50;;;;;;;7.80;2.80;;;16.30;99.90;;;;;;5027165;28;20190;-75
2021/08/04 06:04:15;;;;;;;3.10;1.90;;;16.50;99.90;;;;;;5027928;28;20241;-74
2021/08/04 06:06:41;;;;;;;4.00;2.80;;;16.70;99.90;;;;;;5033579;28;20654;-75
2021/08/04 06:09:07;;;;;;;4.50;2.77;;;16.80;99.90;;;;;;5027247;28;20568;-75
2021/08/04 06:11:32;;;;;;;5.73;5.33;;;16.90;99.90;;;;;;5025226;28;20182;-75
2021/08/04 06:13:58;;;;;;;3.93;3.27;;;16.90;99.90;;;;;;5030073;28;20191;-74
2021/08/04 06:16:23;;;;;;;1.67;1.57;;;17.00;99.90;;;;;;5029577;28;20194;-74
2021/08/04 06:18:49;;;;;;;2.93;2.50;;;17.10;99.90;;;;;;5014137;28;20540;-74
2021/08/04 06:21:14;;;;;;;1.27;1.17;;;17.10;99.90;;;;;;4996953;28;20764;-75
2021/08/04 06:23:40;;;;;;;1.57;1.47;;;17.20;99.90;;;;;;5014617;28;20204;-74
2021/08/04 06:26:05;;;;;;;2.40;2.10;;;17.30;99.90;;;;;;5014378;28;20199;-74
2021/08/04 06:28:31;;;;;;;5.40;3.00;;;17.40;99.90;;;;;;5030675;28;20179;-75
2021/08/04 06:30:57;;;;;;;2.27;2.07;;;17.50;99.90;;;;;;5015196;28;20234;-75
2021/08/04 06:33:22;;;;;;;1.67;1.57;;;17.60;99.90;;;;;;5032701;28;20179;-74
2021/08/04 06:35:48;;;;;;;7.80;2.50;;;17.70;99.90;;;;;;5012602;28;20207;-75
2021/08/04 06:38:13;;;;;;;5.60;2.40;;;17.80;99.90;;;;;;5017346;28;20180;-75
2021/08/04 06:40:39;;;;;;;1.70;1.60;;;18.00;99.90;;;;;;5014013;28;20242;-75
2021/08/04 06:43:05;;;;;;;3.60;2.07;;;18.20;99.90;;;;;;5004265;28;20645;-75
2021/08/04 06:45:30;;;;;;;1.30;1.20;;;18.30;99.90;;;;;;5028910;28;20466;-75
2021/08/04 06:47:56;;;;;;;2.90;1.67;;;18.60;99.90;;;;;;5014107;28;20176;-74
2021/08/04 06:50:23;;;;;;;4.20;3.83;;;18.90;99.90;;;;;;5013733;28;20259;-75
2021/08/04 06:52:49;;;;;;;5.77;2.30;;;19.10;99.90;;;;;;5015812;28;20178;-75
2021/08/04 06:55:14;;;;;;;2.17;2.07;;;19.40;99.90;;;;;;5020498;28;20454;-75
2021/08/04 06:57:40;;;;;;;4.10;3.67;;;19.60;99.90;;;;;;5028131;28;20705;-75
2021/08/04 07:00:06;;;;;;;2.20;2.00;;;19.80;99.90;;;;;;5033381;28;20202;-75
2021/08/04 07:02:31;;;;;;;2.43;2.00;;;20.00;99.90;;;;;;5015368;28;20210;-75
2021/08/04 07:04:57;;;;;;;2.07;1.87;;;20.20;99.90;;;;;;5023429;28;20537;-75
2021/08/04 07:07:22;;;;;;;2.23;2.13;;;20.40;99.90;;;;;;5013441;28;20506;-75
2021/08/04 07:09:48;;;;;;;1.90;1.23;;;20.70;99.90;;;;;;5019643;28;20666;-75
2021/08/04 07:12:14;;;;;;;3.33;2.37;;;20.90;99.90;;;;;;5020765;28;20653;-75
2021/08/04 07:14:40;;;;;;;3.37;2.63;;;21.00;99.90;;;;;;5030632;28;20207;-75
2021/08/04 07:17:05;;;;;;;2.97;2.77;;;21.20;99.90;;;;;;5017437;28;20176;-75
2021/08/04 07:19:31;;;;;;;2.50;1.40;;;21.40;99.90;;;;;;5032767;28;20414;-75
2021/08/04 07:21:57;;;;;;;2.60;2.40;;;21.60;99.90;;;;;;5025511;28;20169;-75
2021/08/04 07:24:23;;;;;;;1.40;1.27;;;21.70;99.90;;;;;;5020079;28;20467;-75
2021/08/04 07:26:48;;;;;;;2.73;2.47;;;21.90;99.90;;;;;;5017074;28;20172;-76
2021/08/04 07:29:14;;;;;;;5.03;4.70;;;22.10;99.90;;;;;;5020692;28;20176;-76
2021/08/04 07:31:40;;;;;;;2.10;1.43;;;22.30;99.90;;;;;;5012408;28;20553;-74
2021/08/04 07:34:08;;;;;;;3.53;2.30;;;22.40;99.90;;;;;;5024326;28;20254;-75
2021/08/04 07:36:34;;;;;;;2.10;1.70;;;22.50;99.90;;;;;;5029260;28;20441;-74
2021/08/04 07:39:00;;;;;;;3.03;1.77;;;22.60;99.90;;;;;;5012473;28;20439;-74
2021/08/04 07:41:26;;;;;;;2.00;1.90;;;22.80;99.90;;;;;;5013837;28;20439;-73
2021/08/04 07:43:51;;;;;;;5.07;3.00;;;23.00;99.90;;;;;;5024768;28;20203;-74
2021/08/04 07:46:17;;;;;;;1.93;1.70;;;23.10;99.90;;;;;;5031389;28;20678;-74
2021/08/04 07:48:44;;;;;;;5.47;3.97;;;23.30;99.90;;;;;;5005980;28;20187;-74
2021/08/04 07:51:09;;;;;;;2.43;1.93;;;23.50;99.90;;;;;;5024449;28;20423;-73
2021/08/04 07:53:35;;;;;;;2.07;1.93;;;23.70;99.90;;;;;;5012158;28;20445;-74
2021/08/04 07:56:01;;;;;;;3.60;3.30;;;23.80;99.90;;;;;;5011538;28;20210;-74
2021/08/04 07:58:26;;;;;;;3.00;2.80;;;24.10;99.90;;;;;;4996488;28;20546;-74
2021/08/04 08:00:52;;;;;;;2.77;1.50;;;24.30;99.90;;;;;;5029920;28;20233;-74
2021/08/04 08:03:17;;;;;;;4.17;3.00;;;24.50;99.90;;;;;;5018119;28;20207;-74
2021/08/04 08:05:43;;;;;;;9.90;4.40;;;24.70;99.90;;;;;;5013266;28;20192;-74
2021/08/04 08:08:08;;;;;;;1.90;1.43;;;24.90;99.90;;;;;;5012011;28;20176;-73
2021/08/04 08:10:36;;;;;;;3.50;3.20;;;25.20;99.90;;;;;;5012836;28;20256;-74
2021/08/04 08:13:03;;;;;;;3.00;1.93;;;25.30;99.90;;;;;;5028332;28;20266;-74
2021/08/04 08:15:29;;;;;;;4.97;4.60;;;25.40;99.90;;;;;;5011967;28;20439;-74
2021/08/04 08:17:55;;;;;;;3.33;2.93;;;25.60;99.90;;;;;;5020874;28;20796;-74
2021/08/04 08:20:21;;;;;;;1.80;1.70;;;25.70;99.90;;;;;;5016863;28;20180;-74
2021/08/04 08:22:48;;;;;;;2.10;2.00;;;25.80;99.90;;;;;;5030124;28;20203;-74
2021/08/04 08:25:14;;;;;;;2.60;2.27;;;26.00;99.90;;;;;;5030514;28;20453;-74
2021/08/04 08:27:44;;;;;;;1.43;1.33;;;26.20;99.90;;;;;;5015161;28;20438;-74
2021/08/04 08:30:11;;;;;;;13.23;2.37;;;26.50;99.90;;;;;;5014649;28;20430;-74
2021/08/04 08:32:37;;;;;;;2.57;2.07;;;26.60;99.90;;;;;;5029165;28;20426;-73
2021/08/04 08:35:03;;;;;;;2.30;2.07;;;26.70;99.90;;;;;;5020747;28;20628;-74
2021/08/04 08:37:29;;;;;;;2.40;2.00;;;26.90;99.90;;;;;;5029119;28;20176;-74
2021/08/04 08:39:54;;;;;;;3.10;2.57;;;27.00;99.90;;;;;;5020213;28;20963;-74
2021/08/04 08:42:21;;;;;;;1.10;1.00;;;27.00;99.90;;;;;;5029289;28;20264;-74
2021/08/04 08:44:47;;;;;;;2.03;1.93;;;26.70;99.90;;;;;;5012953;28;20188;-74
2021/08/04 08:47:14;;;;;;;2.23;1.87;;;26.90;99.90;;;;;;5011583;28;20531;-73
2021/08/04 08:49:42;;;;;;;1.93;1.83;;;27.10;99.90;;;;;;5012171;28;20411;-74
2021/08/04 08:52:08;;;;;;;2.30;2.10;;;27.30;99.90;;;;;;5016365;28;20422;-73
2021/08/04 08:54:34;;;;;;;3.47;2.57;;;27.30;99.90;;;;;;5028883;28;20871;-74
2021/08/04 08:56:59;;;;;;;2.63;2.43;;;27.40;99.90;;;;;;5023284;28;20441;-74
2021/08/04 08:59:25;;;;;;;4.43;2.20;;;27.50;99.90;;;;;;5024626;28;20437;-74
2021/08/04 09:01:51;;;;;;;4.37;2.87;;;27.60;99.90;;;;;;5017663;28;20185;-74
2021/08/04 09:04:16;;;;;;;4.80;2.47;;;27.70;99.90;;;;;;5011977;28;20207;-74
2021/08/04 09:06:46;;;;;;;3.97;2.07;;;28.00;99.90;;;;;;5019390;28;20159;-74
2021/08/04 09:09:34;;;;;;;2.10;1.90;;;28.10;99.90;;;;;;5014547;28;20184;-74
2021/08/04 09:12:02;;;;;;;4.50;3.70;;;28.20;99.90;;;;;;5011481;28;20515;-74
2021/08/04 09:14:30;;;;;;;2.03;1.83;;;28.40;99.90;;;;;;5013020;28;21092;-74
2021/08/04 09:17:05;;;;;;;2.80;1.80;;;28.40;99.90;;;;;;5014670;28;20426;-74
2021/08/04 09:19:33;;;;;;;2.17;1.77;;;28.60;99.90;;;;;;5011449;28;20430;-74
2021/08/04 09:22:09;;;;;;;3.40;3.10;;;28.80;99.90;;;;;;5011803;28;20801;-74
2021/08/04 09:25:07;;;;;;;2.50;2.30;;;29.20;99.90;;;;;;5018164;28;21036;-74
2021/08/04 09:27:50;;;;;;;4.17;2.67;;;29.40;99.90;;;;;;5022873;28;20415;-74
2021/08/04 09:30:29;;;;;;;2.17;2.03;;;29.50;99.90;;;;;;5018853;28;20424;-74
2021/08/04 09:33:17;;;;;;;2.80;2.60;;;29.80;99.90;;;;;;5030605;28;20442;-75
2021/08/04 09:35:48;;;;;;;3.10;2.83;;;30.20;99.90;;;;;;5022311;28;21028;-74
2021/08/04 09:38:15;;;;;;;3.30;2.83;;;30.40;95.00;;;;;;5029189;28;20919;-74
2021/08/04 09:40:41;;;;;;;2.20;2.00;;;30.30;93.10;;;;;;5028916;28;20457;-75
2021/08/04 09:43:07;;;;;;;4.20;2.43;;;30.40;92.70;;;;;;5031675;28;20465;-74
2021/08/04 09:45:44;;;;;;;2.50;2.30;;;30.60;92.00;;;;;;5032251;28;20445;-74
2021/08/04 09:48:12;;;;;;;1.30;1.20;;;30.90;90.40;;;;;;5021824;28;20429;-74
2021/08/04 09:50:46;;;;;;;2.37;2.17;;;31.30;93.10;;;;;;5034676;28;20403;-74
2021/08/04 09:53:19;;;;;;;3.37;2.50;;;31.50;82.70;;;;;;5020777;28;20446;-74
2021/08/04 09:56:09;;;;;;;2.63;2.00;;;31.70;73.80;;;;;;5015766;28;20541;-75
2021/08/04 09:58:37;;;;;;;1.67;1.57;;;31.80;73.00;;;;;;5025837;28;20829;-74
2021/08/04 10:01:04;;;;;;;2.00;1.80;;;31.70;75.10;;;;;;5031572;28;20414;-74
2021/08/04 10:03:30;;;;;;;2.40;2.20;;;31.70;72.20;;;;;;5014752;28;20794;-74
2021/08/04 10:05:56;;;;;;;3.50;3.03;;;31.70;67.60;;;;;;5014315;28;20468;-74
2021/08/04 10:08:22;;;;;;;4.90;3.03;;;31.70;66.80;;;;;;5017103;28;20506;-74
2021/08/04 10:10:50;;;;;;;3.13;2.40;;;31.70;69.70;;;;;;5024739;28;20694;-74
2021/08/04 10:13:18;;;;;;;3.10;2.23;;;31.70;69.50;;;;;;5034319;28;20696;-74
2021/08/04 10:15:57;;;;;;;2.77;2.07;;;32.00;72.00;;;;;;5030550;28;20472;-74
2021/08/04 10:18:26;;;;;;;2.50;1.70;;;32.20;72.20;;;;;;5016889;28;20859;-74
2021/08/04 10:20:59;;;;;;;2.20;2.00;;;32.40;66.30;;;;;;5014121;28;20399;-74
2021/08/04 10:23:25;;;;;;;3.23;2.93;;;32.40;65.90;;;;;;5024231;28;20458;-74
2021/08/04 10:25:52;;;;;;;3.20;2.30;;;32.30;66.80;;;;;;5018099;28;20452;-74
2021/08/04 10:28:19;;;;;;;2.50;2.20;;;32.50;69.80;;;;;;5033110;28;20441;-74
2021/08/04 10:30:45;;;;;;;1.73;1.63;;;32.60;67.50;;;;;;5030974;28;20496;-74
2021/08/04 10:33:11;;;;;;;2.60;2.43;;;32.40;64.00;;;;;;5024202;28;20469;-74
2021/08/04 10:35:44;;;;;;;2.90;2.47;;;32.10;62.50;;;;;;5033234;28;20537;-75
2021/08/04 10:38:14;;;;;;;1.97;1.73;;;32.00;63.50;;;;;;5024634;28;20446;-74
2021/08/04 10:40:40;;;;;;;4.50;2.63;;;31.90;66.60;;;;;;5021280;28;20446;-74
2021/08/04 10:43:06;;;;;;;2.10;2.00;;;31.70;66.30;;;;;;5024625;28;20515;-73
2021/08/04 10:45:34;;;;;;;2.73;2.23;;;31.40;67.30;;;;;;5025859;28;20188;-74
2021/08/04 10:48:23;;;;;;;3.67;1.77;;;31.20;69.90;;;;;;5025411;28;20175;-73
2021/08/04 10:51:17;;;;;;;3.20;2.90;;;31.10;75.80;;;;;;5014266;28;20427;-73
2021/08/04 10:54:14;;;;;;;2.23;2.03;;;31.10;71.60;;;;;;5018310;28;20430;-74
2021/08/04 10:56:42;;;;;;;6.33;2.63;;;30.90;70.10;;;;;;5025387;28;20435;-74
2021/08/04 10:59:08;;;;;;;2.07;1.40;;;30.70;75.50;;;;;;5021593;28;20445;-73
2021/08/04 11:01:37;;;;;;;2.10;2.00;;;30.60;71.40;;;;;;5018932;28;20513;-73
2021/08/04 11:04:06;;;;;;;2.90;2.30;;;30.50;72.60;;;;;;5025764;28;20199;-73
2021/08/04 11:06:33;;;;;;;3.70;2.10;;;30.20;69.90;;;;;;5020328;28;20423;-73
2021/08/04 11:09:17;;;;;;;2.13;1.53;;;30.00;73.10;;;;;;5025770;28;20435;-73
2021/08/04 11:12:01;;;;;;;2.80;2.50;;;29.80;68.40;;;;;;5019118;28;20521;-72
2021/08/04 11:14:38;;;;;;;1.20;1.10;;;29.40;69.70;;;;;;5030656;28;20469;-73
2021/08/04 11:17:05;;;;;;;1.60;1.50;;;29.30;70.60;;;;;;5028875;28;20433;-73
2021/08/04 11:19:34;;;;;;;2.63;2.30;;;29.20;71.50;;;;;;5012208;28;20797;-73
2021/08/04 11:22:17;;;;;;;1.70;1.37;;;28.90;71.10;;;;;;5013005;28;20426;-73
2021/08/04 11:24:57;;;;;;;1.60;1.50;;;28.80;72.70;;;;;;5013101;28;20799;-72
2021/08/04 11:27:25;;;;;;;1.43;1.33;;;28.40;75.30;;;;;;5014346;28;20423;-72
2021/08/04 11:29:52;;;;;;;2.53;2.03;;;28.20;79.40;;;;;;5014657;28;20981;-72
2021/08/04 11:32:23;;;;;;;2.90;2.30;;;27.90;81.10;;;;;;5012754;28;20395;-72
2021/08/04 11:34:49;;;;;;;2.70;1.90;;;27.80;85.60;;;;;;5031968;28;20446;-73
2021/08/04 11:37:15;;;;;;;3.30;2.37;;;27.50;90.20;;;;;;5032500;28;20402;-73
2021/08/04 11:40:02;;;;;;;2.67;1.77;;;27.20;92.40;;;;;;5031967;28;20509;-73
2021/08/04 11:42:29;;;;;;;2.03;1.60;;;27.00;96.40;;;;;;5028652;28;20426;-74
2021/08/04 11:45:11;;;;;;;1.57;1.47;;;26.70;98.40;;;;;;5017688;28;20962;-74
2021/08/04 11:47:38;;;;;;;1.43;1.33;;;26.40;99.90;;;;;;5017619;28;20418;-74
2021/08/04 11:50:08;;;;;;;2.00;1.40;;;26.20;99.90;;;;;;5023629;28;20509;-73
2021/08/04 11:52:35;;;;;;;1.30;1.20;;;26.00;99.90;;;;;;5031692;28;20947;-72
2021/08/04 11:55:08;;;;;;;3.00;1.63;;;26.00;99.90;;;;;;5014217;28;20549;-73
2021/08/04 11:57:46;;;;;;;1.87;1.63;;;25.70;99.90;;;;;;5012221;28;20555;-73
2021/08/04 12:00:27;;;;;;;0.90;0.80;;;25.60;99.90;;;;;;5012380;28;20406;-73
2021/08/04 12:02:53;;;;;;;8.63;2.30;;;25.40;99.90;;;;;;5011671;28;20466;-74
2021/08/04 12:05:20;;;;;;;1.50;1.40;;;25.40;99.90;;;;;;5012258;28;20467;-73
2021/08/04 12:07:46;;;;;;;1.40;1.10;;;25.40;99.90;;;;;;5012270;28;20181;-75
2021/08/04 12:10:14;;;;;;;2.33;2.13;;;25.30;99.90;;;;;;5013332;28;20453;-75
2021/08/04 12:12:45;;;;;;;2.70;2.47;;;25.20;99.90;;;;;;5012221;28;20799;-75
2021/08/04 12:15:15;;;;;;;3.83;2.53;;;25.20;99.90;;;;;;5012435;28;20442;-72
2021/08/04 12:17:41;;;;;;;2.77;2.53;;;25.20;99.90;;;;;;5019488;28;20434;-73
2021/08/04 12:20:12;;;;;;;5.63;4.47;;;25.20;99.90;;;;;;5012411;28;20514;-73
2021/08/04 12:22:37;;;;;;;2.60;1.60;;;25.30;99.90;;;;;;5011934;28;20486;-73
2021/08/04 12:25:04;;;;;;;4.13;1.70;;;25.40;99.90;;;;;;5016127;28;20527;-74
2021/08/04 12:27:39;;;;;;;6.50;3.50;;;25.30;99.90;;;;;;5030783;28;20595;-75
2021/08/04 12:30:11;;;;;;;1.70;1.40;;;25.30;99.90;;;;;;5019060;28;20575;-74
2021/08/04 12:32:58;;;;;;;2.40;2.20;;;25.20;99.90;;;;;;5015405;28;20469;-75
2021/08/04 12:35:35;;;;;;;1.77;1.67;;;25.30;99.90;;;;;;5023790;28;20451;-74
2021/08/04 12:38:16;;;;;;;2.10;2.00;;;25.40;99.90;;;;;;5017538;28;20524;-74
2021/08/04 12:40:52;;;;;;;1.90;1.80;;;25.50;99.90;;;;;;5021092;28;20430;-76
2021/08/04 12:43:18;;;;;;;1.20;1.10;;;25.60;99.90;;;;;;5033298;28;20950;-76
2021/08/04 12:45:48;;;;;;;2.43;1.90;;;25.70;99.90;;;;;;5033436;28;20437;-74
2021/08/04 12:48:15;;;;;;;1.77;1.67;;;25.80;99.90;;;;;;5030212;28;20430;-74
2021/08/04 12:50:57;;;;;;;1.30;1.00;;;25.90;99.90;;;;;;4995423;28;21170;-74
2021/08/04 12:53:34;;;;;;;1.40;1.10;;;25.90;99.90;;;;;;5019512;28;20464;-74